createdAt,value
2018-04-26T00:02:12.505Z,5.70
2018-04-26T00:04:40.973Z,5.17
2018-04-26T00:07:10.285Z,5.10
2018-04-26T00:09:38.864Z,4.80
2018-04-26T00:12:07.337Z,4.90
2018-04-26T00:14:35.924Z,5.17
2018-04-26T00:17:04.414Z,5.27
2018-04-26T00:19:32.885Z,4.87
2018-04-26T00:22:01.770Z,4.50
2018-04-26T00:24:30.697Z,4.63
2018-04-26T00:26:59.582Z,4.80
2018-04-26T00:29:29.673Z,4.60
2018-04-26T00:31:58.622Z,5.30
2018-04-26T00:34:27.217Z,4.70
2018-04-26T00:36:56.480Z,5.37
2018-04-26T00:39:25.363Z,5.20
2018-04-26T00:41:54.610Z,5.20
2018-04-26T00:44:23.861Z,5.10
2018-04-26T00:46:52.394Z,4.80
2018-04-26T00:49:21.657Z,4.80
2018-04-26T00:52:01.304Z,4.33
2018-04-26T00:54:30.550Z,5.40
2018-04-26T00:56:59.785Z,4.80
2018-04-26T00:59:28.281Z,4.50
2018-04-26T01:01:56.748Z,5.07
2018-04-26T01:04:25.225Z,4.73
2018-04-26T01:06:54.148Z,5.20
2018-04-26T01:09:23.170Z,5.67
2018-04-26T01:11:52.045Z,5.70
2018-04-26T01:14:20.525Z,5.47
2018-04-26T01:16:49.069Z,5.47
2018-04-26T01:19:17.961Z,5.80
2018-04-26T01:21:46.449Z,5.27
2018-04-26T01:24:15.401Z,5.33
2018-04-26T01:26:44.697Z,5.30
2018-04-26T01:29:13.949Z,5.00
2018-04-26T01:31:42.425Z,5.10
2018-04-26T01:34:10.915Z,4.30
2018-04-26T01:36:51.672Z,5.20
2018-04-26T01:39:21.030Z,5.53
2018-04-26T01:41:49.969Z,4.50
2018-04-26T01:44:18.889Z,5.10
2018-04-26T01:46:47.776Z,5.67
2018-04-26T01:49:16.765Z,4.60
2018-04-26T01:51:45.649Z,4.50
2018-04-26T01:54:14.137Z,4.67
2018-04-26T01:56:42.666Z,4.80
2018-04-26T01:59:12.020Z,4.93
2018-04-26T02:01:40.486Z,4.50
2018-04-26T02:04:09.170Z,4.70
2018-04-26T02:06:37.678Z,5.40
2018-04-26T02:09:05.502Z,4.93
2018-04-26T02:11:34.761Z,6.00
2018-04-26T02:14:03.230Z,5.30
2018-04-26T02:16:31.708Z,5.63
2018-04-26T02:19:00.178Z,5.30
2018-04-26T02:21:28.672Z,4.73
2018-04-26T02:23:57.140Z,5.50
2018-04-26T02:26:25.755Z,4.80
2018-04-26T02:28:53.891Z,5.23
2018-04-26T02:31:22.393Z,5.30
2018-04-26T02:33:50.861Z,5.30
2018-04-26T02:36:19.360Z,5.40
2018-04-26T02:38:47.821Z,5.83
2018-04-26T02:41:16.297Z,5.27
2018-04-26T02:43:44.810Z,5.00
2018-04-26T02:46:13.283Z,4.80
2018-04-26T02:48:41.867Z,5.30
2018-04-26T02:51:10.429Z,5.80
2018-04-26T02:53:38.905Z,6.07
2018-04-26T02:56:08.159Z,7.00
2018-04-26T02:58:36.653Z,6.37
2018-04-26T03:01:05.177Z,5.80
2018-04-26T03:03:33.679Z,6.23
2018-04-26T03:06:02.169Z,7.03
2018-04-26T03:08:30.645Z,7.07
2018-04-26T03:10:59.165Z,6.53
2018-04-26T03:13:28.401Z,6.27
2018-04-26T03:15:57.653Z,5.87
2018-04-26T03:18:26.123Z,6.23
2018-04-26T03:20:54.606Z,6.70
2018-04-26T03:23:23.079Z,6.90
2018-04-26T03:25:51.584Z,8.07
2018-04-26T03:28:20.062Z,6.50
2018-04-26T03:30:48.539Z,6.57
2018-04-26T03:33:16.677Z,6.57
2018-04-26T03:35:45.161Z,7.43
2018-04-26T03:38:14.610Z,7.97
2018-04-26T03:40:43.086Z,7.17
2018-04-26T03:43:11.569Z,6.97
2018-04-26T03:45:40.046Z,7.80
2018-04-26T03:48:08.521Z,6.57
2018-04-26T03:50:37.008Z,7.20
2018-04-26T03:53:06.301Z,7.53
2018-04-26T03:55:34.845Z,8.60
2018-04-26T03:58:03.760Z,7.53
2018-04-26T04:00:43.641Z,6.90
2018-04-26T04:03:23.580Z,6.80
2018-04-26T04:19:23.137Z,7.30
2018-04-26T04:21:51.733Z,6.73
2018-04-26T04:24:20.789Z,6.40
2018-04-26T04:26:49.293Z,6.87
2018-04-26T04:29:17.837Z,6.13
2018-04-26T04:31:46.573Z,6.17
2018-04-26T04:34:15.821Z,5.80
2018-04-26T04:36:44.297Z,5.80
2018-04-26T04:39:12.789Z,6.33
2018-04-26T04:41:41.270Z,6.20
2018-04-26T04:44:09.766Z,6.27
2018-04-26T04:46:38.228Z,6.70
2018-04-26T04:49:06.712Z,6.33
2018-04-26T04:51:35.192Z,7.80
2018-04-26T04:54:03.682Z,5.80
2018-04-26T04:56:32.201Z,6.00
2018-04-26T04:59:00.691Z,5.60
2018-04-26T05:01:29.176Z,5.90
2018-04-26T05:03:57.640Z,6.00
2018-04-26T05:06:27.001Z,6.17
2018-04-26T05:08:55.484Z,6.07
2018-04-26T05:11:23.964Z,5.83
2018-04-26T05:13:52.391Z,6.60
2018-04-26T05:16:21.088Z,6.20
2018-04-26T05:18:49.595Z,6.50
2018-04-26T05:21:18.941Z,5.73
2018-04-26T05:23:47.526Z,6.13
2018-04-26T05:26:16.865Z,6.93
2018-04-26T05:28:45.545Z,6.77
2018-04-26T05:31:14.107Z,5.90
2018-04-26T05:33:42.702Z,6.80
2018-04-26T05:36:11.318Z,5.90
2018-04-26T05:38:39.792Z,6.60
2018-04-26T05:41:08.290Z,7.30
2018-04-26T05:43:37.634Z,6.40
2018-04-26T05:46:06.156Z,6.43
2018-04-26T05:48:34.765Z,6.57
2018-04-26T05:51:04.209Z,6.33
2018-04-26T05:53:32.700Z,5.63
2018-04-26T05:56:00.921Z,6.20
2018-04-26T05:58:30.301Z,5.63
2018-04-26T06:00:58.789Z,5.37
2018-04-26T06:03:27.325Z,5.30
2018-04-26T06:05:55.969Z,5.10
2018-04-26T06:08:24.457Z,4.63
2018-04-26T06:10:52.974Z,5.00
2018-04-26T06:13:21.446Z,4.73
2018-04-26T06:15:50.748Z,4.67
2018-04-26T06:18:19.989Z,5.03
2018-04-26T06:20:48.469Z,4.50
2018-04-26T06:23:16.949Z,4.20
2018-04-26T06:25:45.441Z,3.77
2018-04-26T06:28:13.910Z,4.33
2018-04-26T06:30:42.389Z,4.13
2018-04-26T06:33:11.867Z,3.23
2018-04-26T06:35:41.328Z,3.70
2018-04-26T06:38:10.804Z,3.00
2018-04-26T06:40:40.813Z,3.00
2018-04-26T06:43:09.332Z,3.07
2018-04-26T06:45:38.808Z,2.50
2018-04-26T06:48:08.300Z,3.10
2018-04-26T06:50:37.805Z,2.73
2018-04-26T06:53:07.301Z,3.20
2018-04-26T06:55:37.037Z,2.80
2018-04-26T06:58:06.601Z,3.30
2018-04-26T07:00:36.193Z,2.93
2018-04-26T07:03:05.573Z,3.10
2018-04-26T07:05:35.233Z,2.73
2018-04-26T07:08:04.705Z,3.20
2018-04-26T07:10:34.192Z,2.70
2018-04-26T07:13:03.814Z,3.10
2018-04-26T07:15:33.174Z,2.97
2018-04-26T07:18:02.713Z,2.43
2018-04-26T07:20:32.332Z,2.57
2018-04-26T07:23:01.826Z,3.20
2018-04-26T07:25:30.301Z,3.20
2018-04-26T07:27:58.817Z,2.90
2018-04-26T07:30:27.353Z,3.07
2018-04-26T07:32:55.833Z,2.23
2018-04-26T07:35:24.309Z,3.50
2018-04-26T07:37:53.570Z,3.00
2018-04-26T07:40:22.058Z,2.60
2018-04-26T07:42:51.536Z,2.50
2018-04-26T07:45:21.163Z,3.00
2018-04-26T07:47:49.753Z,2.90
2018-04-26T07:50:18.241Z,2.57
2018-04-26T07:52:46.712Z,3.17
2018-04-26T07:55:15.194Z,3.00
2018-04-26T07:57:43.664Z,3.20
2018-04-26T08:00:12.161Z,2.60
2018-04-26T08:02:40.621Z,2.87
2018-04-26T08:05:09.093Z,2.97
2018-04-26T08:07:37.682Z,2.80
2018-04-26T08:10:06.158Z,3.10
2018-04-26T08:12:34.658Z,2.90
2018-04-26T08:15:03.170Z,2.90
2018-04-26T08:17:31.658Z,3.63
2018-04-26T08:20:00.126Z,2.67
2018-04-26T08:22:28.629Z,2.60
2018-04-26T08:24:58.162Z,2.63
2018-04-26T08:27:26.874Z,3.13
2018-04-26T08:29:55.332Z,2.70
2018-04-26T08:32:23.994Z,2.73
2018-04-26T08:34:53.468Z,2.53
2018-04-26T08:37:22.965Z,2.60
2018-04-26T08:39:52.445Z,2.70
2018-04-26T08:42:21.939Z,2.90
2018-04-26T08:44:51.430Z,3.13
2018-04-26T08:47:20.908Z,3.50
2018-04-26T08:49:50.408Z,3.07
2018-04-26T08:52:18.993Z,2.77
2018-04-26T08:54:47.658Z,2.87
2018-04-26T08:57:17.189Z,2.87
2018-04-26T08:59:46.830Z,3.00
2018-04-26T09:02:16.484Z,3.30
2018-04-26T09:04:45.980Z,3.33
2018-04-26T09:07:15.448Z,3.43
2018-04-26T09:09:44.936Z,2.63
2018-04-26T09:12:14.421Z,2.77
2018-04-26T09:14:43.904Z,3.43
2018-04-26T09:17:13.440Z,3.27
2018-04-26T09:19:42.693Z,2.87
2018-04-26T09:22:12.320Z,3.17
2018-04-26T09:24:40.859Z,2.73
2018-04-26T09:27:09.389Z,2.60
2018-04-26T09:29:37.516Z,3.30
2018-04-26T09:32:06.037Z,3.10
2018-04-26T09:34:35.540Z,2.80
2018-04-26T09:37:05.100Z,2.40
2018-04-26T09:39:34.567Z,2.50
2018-04-26T09:42:03.049Z,2.60
2018-04-26T09:44:32.528Z,2.57
2018-04-26T09:47:02.012Z,2.07
2018-04-26T09:49:30.510Z,2.23
2018-04-26T09:51:59.980Z,1.80
2018-04-26T09:54:29.535Z,2.13
2018-04-26T09:56:59.048Z,2.43
2018-04-26T09:59:28.625Z,1.53
2018-04-26T10:02:02.826Z,2.27
2018-04-26T10:04:36.618Z,2.03
2018-04-26T10:07:05.569Z,2.00
2018-04-26T10:09:35.040Z,2.90
2018-04-26T10:12:03.536Z,1.83
2018-04-26T10:14:31.993Z,1.73
2018-04-26T10:17:00.496Z,1.70
2018-04-26T10:19:29.158Z,1.93
2018-04-26T10:21:57.663Z,2.10
2018-04-26T10:24:26.614Z,2.40
2018-04-26T10:26:55.113Z,1.90
2018-04-26T10:29:24.616Z,2.00
2018-04-26T10:31:54.205Z,1.53
2018-04-26T10:34:24.232Z,1.77
2018-04-26T10:36:52.721Z,1.80
2018-04-26T10:39:21.194Z,1.90
2018-04-26T10:41:49.726Z,1.70
2018-04-26T10:44:18.204Z,1.60
2018-04-26T10:46:47.893Z,1.63
2018-04-26T10:49:16.430Z,1.70
2018-04-26T10:51:45.665Z,1.60
2018-04-26T10:54:14.939Z,1.43
2018-04-26T10:56:43.412Z,1.97
2018-04-26T10:59:12.956Z,1.63
2018-04-26T11:01:41.429Z,1.47
2018-04-26T11:04:10.926Z,1.30
2018-04-26T11:06:39.406Z,1.70
2018-04-26T11:09:07.953Z,1.27
2018-04-26T11:11:37.599Z,1.47
2018-04-26T11:14:06.265Z,1.47
2018-04-26T11:16:35.527Z,1.73
2018-04-26T11:19:04.013Z,1.67
2018-04-26T11:21:32.512Z,1.90
2018-04-26T11:24:00.994Z,2.07
2018-04-26T11:26:29.476Z,2.00
2018-04-26T11:28:57.938Z,2.17
2018-04-26T11:31:27.470Z,2.50
2018-04-26T11:33:55.944Z,2.20
2018-04-26T11:36:24.448Z,2.87
2018-04-26T11:38:53.953Z,1.93
2018-04-26T11:41:22.959Z,1.97
2018-04-26T11:43:51.817Z,1.70
2018-04-26T11:46:21.400Z,1.63
2018-04-26T11:48:49.873Z,1.43
2018-04-26T11:51:18.351Z,1.97
2018-04-26T11:53:46.850Z,1.60
2018-04-26T11:56:16.291Z,1.63
2018-04-26T11:58:46.083Z,1.70
2018-04-26T12:01:15.587Z,1.60
2018-04-26T12:03:45.077Z,1.37
2018-04-26T12:06:14.634Z,1.63
2018-04-26T12:08:43.892Z,1.60
2018-04-26T12:11:12.125Z,1.60
2018-04-26T12:13:41.608Z,1.20
2018-04-26T12:16:10.082Z,1.37
2018-04-26T12:18:39.563Z,1.57
2018-04-26T12:21:09.053Z,1.90
2018-04-26T12:23:38.516Z,1.60
2018-04-26T12:26:08.022Z,1.23
2018-04-26T12:28:37.262Z,1.37
2018-04-26T12:31:05.780Z,1.20
2018-04-26T12:33:35.012Z,1.33
2018-04-26T12:36:04.481Z,1.57
2018-04-26T12:38:33.999Z,1.50
2018-04-26T12:41:03.658Z,1.23
2018-04-26T12:43:32.554Z,1.70
2018-04-26T12:46:02.079Z,1.90
2018-04-26T12:48:30.570Z,1.27
2018-04-26T12:51:00.056Z,1.60
2018-04-26T12:53:29.570Z,1.30
2018-04-26T12:55:59.165Z,1.30
2018-04-26T12:58:28.680Z,1.20
2018-04-26T13:00:58.161Z,1.27
2018-04-26T13:03:27.716Z,1.23
2018-04-26T13:05:57.229Z,1.60
2018-04-26T13:08:25.716Z,1.33
2018-04-26T13:10:55.208Z,1.57
2018-04-26T13:13:24.713Z,1.03
2018-04-26T13:15:53.186Z,1.30
2018-04-26T13:18:21.756Z,1.50
2018-04-26T13:20:50.381Z,1.90
2018-04-26T13:23:19.948Z,1.83
2018-04-26T13:25:48.962Z,1.43
2018-04-26T13:28:18.455Z,1.40
2018-04-26T13:30:48.071Z,1.23
2018-04-26T13:33:17.564Z,1.40
2018-04-26T13:35:47.092Z,1.43
2018-04-26T13:38:16.589Z,1.70
2018-04-26T13:40:46.053Z,1.40
2018-04-26T13:43:15.524Z,1.60
2018-04-26T13:45:44.193Z,1.60
2018-04-26T13:48:13.432Z,1.10
2018-04-26T13:50:43.152Z,1.20
2018-04-26T13:53:12.629Z,1.40
2018-04-26T13:55:42.220Z,1.30
2018-04-26T13:58:11.888Z,1.30
2018-04-26T14:00:41.431Z,1.37
2018-04-26T14:03:11.210Z,1.50
2018-04-26T14:05:40.451Z,1.20
2018-04-26T14:08:10.069Z,2.50
2018-04-26T14:10:38.965Z,1.70
2018-04-26T14:13:08.486Z,1.50
2018-04-26T14:15:37.997Z,1.83
2018-04-26T14:18:07.476Z,1.40
2018-04-26T14:20:35.944Z,1.33
2018-04-26T14:23:05.556Z,1.60
2018-04-26T14:25:34.296Z,0.87
2018-04-26T14:28:03.561Z,1.33
2018-04-26T14:30:33.060Z,1.30
2018-04-26T14:33:02.739Z,1.50
2018-04-26T14:35:31.114Z,1.73
2018-04-26T14:38:00.780Z,1.60
2018-04-26T14:40:30.264Z,1.40
2018-04-26T14:42:59.804Z,2.07
2018-04-26T14:45:29.397Z,1.90
2018-04-26T14:47:58.918Z,1.70
2018-04-26T14:50:28.405Z,1.63
2018-04-26T14:52:58.413Z,1.70
2018-04-26T14:55:26.701Z,1.67
2018-04-26T14:57:55.197Z,2.27
2018-04-26T15:00:24.713Z,2.13
2018-04-26T15:02:54.281Z,1.70
2018-04-26T15:05:23.863Z,2.00
2018-04-26T15:07:53.518Z,1.70
2018-04-26T15:10:23.025Z,1.60
2018-04-26T15:12:52.508Z,1.57
2018-04-26T15:15:22.097Z,1.60
2018-04-26T15:17:51.694Z,1.47
2018-04-26T15:20:21.174Z,1.50
2018-04-26T15:22:50.669Z,1.47
2018-04-26T15:25:20.193Z,1.20
2018-04-26T15:27:49.699Z,1.80
2018-04-26T15:30:18.332Z,1.27
2018-04-26T15:32:47.832Z,1.57
2018-04-26T15:35:17.407Z,1.20
2018-04-26T15:37:46.927Z,1.83
2018-04-26T15:40:16.420Z,1.30
2018-04-26T15:42:45.932Z,1.20
2018-04-26T15:45:15.444Z,1.40
2018-04-26T15:47:44.979Z,1.43
2018-04-26T15:50:12.870Z,1.90
2018-04-26T15:52:58.198Z,1.53
2018-04-26T15:55:39.010Z,1.50
2018-04-26T16:11:55.625Z,1.50
2018-04-26T16:14:33.475Z,2.07
2018-04-26T16:17:24.872Z,2.33
2018-04-26T16:20:05.549Z,1.50
2018-04-26T16:22:46.263Z,1.77
2018-04-26T16:25:21.381Z,1.83
2018-04-26T16:27:56.365Z,1.40
2018-04-26T16:30:36.177Z,1.30
2018-04-26T16:33:15.969Z,1.77
2018-04-26T16:35:55.803Z,1.70
2018-04-26T16:38:31.021Z,1.53
2018-04-26T16:41:00.605Z,1.30
2018-04-26T16:43:30.147Z,1.40
2018-04-26T16:45:59.683Z,1.50
2018-04-26T16:48:29.201Z,1.80
2018-04-26T16:50:58.745Z,1.53
2018-04-26T16:53:27.257Z,1.37
2018-04-26T16:55:57.341Z,1.50
2018-04-26T16:58:26.579Z,1.50
2018-04-26T17:00:56.112Z,1.60
2018-04-26T17:03:25.596Z,1.27
2018-04-26T17:05:55.113Z,1.23
2018-04-26T17:08:24.620Z,1.30
2018-04-26T17:10:54.098Z,1.80
2018-04-26T17:13:23.829Z,1.33
2018-04-26T17:15:53.312Z,1.67
2018-04-26T17:18:22.842Z,1.43
2018-04-26T17:20:52.358Z,1.50
2018-04-26T17:23:21.049Z,1.40
2018-04-26T17:25:49.517Z,1.43
2018-04-26T17:28:18.032Z,1.63
2018-04-26T17:30:46.537Z,1.40
2018-04-26T17:33:15.855Z,1.33
2018-04-26T17:35:44.338Z,1.93
2018-04-26T17:38:12.863Z,1.97
2018-04-26T17:40:41.434Z,2.03
2018-04-26T17:43:09.924Z,1.40
2018-04-26T17:45:38.507Z,1.70
2018-04-26T17:48:07.932Z,2.37
2018-04-26T17:50:36.590Z,1.70
2018-04-26T17:53:05.071Z,1.47
2018-04-26T17:55:33.577Z,1.00
2018-04-26T17:58:02.080Z,1.40
2018-04-26T18:00:31.352Z,1.70
2018-04-26T18:02:59.918Z,2.00
2018-04-26T18:05:28.496Z,2.10
2018-04-26T18:07:57.090Z,1.00
2018-04-26T18:10:25.662Z,1.50
2018-04-26T18:12:54.169Z,1.17
2018-04-26T18:15:22.687Z,1.20
2018-04-26T18:17:51.202Z,1.87
2018-04-26T18:20:19.738Z,1.50
2018-04-26T18:22:48.389Z,1.37
2018-04-26T18:25:16.870Z,1.47
2018-04-26T18:27:45.357Z,1.40
2018-04-26T18:30:14.340Z,1.00
2018-04-26T18:32:42.829Z,1.20
2018-04-26T18:35:11.341Z,1.10
2018-04-26T18:37:39.502Z,1.40
2018-04-26T18:40:08.132Z,1.47
2018-04-26T18:42:37.392Z,1.20
2018-04-26T18:45:05.877Z,1.30
2018-04-26T18:47:34.444Z,1.43
2018-04-26T18:50:02.957Z,1.77
2018-04-26T18:52:32.362Z,1.73
2018-04-26T18:55:02.522Z,1.70
2018-04-26T18:57:31.111Z,1.43
2018-04-26T18:59:59.661Z,1.73
2018-04-26T19:02:28.222Z,1.23
2018-04-26T19:04:56.894Z,1.47
2018-04-26T19:07:25.476Z,1.70
2018-04-26T19:09:54.100Z,1.23
2018-04-26T19:12:22.685Z,1.70
2018-04-26T19:14:51.464Z,1.80
2018-04-26T19:17:21.144Z,1.70
2018-04-26T19:19:49.931Z,1.80
2018-04-26T19:22:18.925Z,1.93
2018-04-26T19:24:49.357Z,1.87
2018-04-26T19:27:19.884Z,1.53
2018-04-26T19:29:49.611Z,1.40
2018-04-26T19:32:18.694Z,1.87
2018-04-26T19:34:49.120Z,2.03
2018-04-26T19:37:18.117Z,1.70
2018-04-26T19:39:47.828Z,1.97
2018-04-26T19:42:16.923Z,2.00
2018-04-26T19:44:47.353Z,1.47
2018-04-26T19:47:16.967Z,2.00
2018-04-26T19:49:46.672Z,1.50
2018-04-26T19:52:16.383Z,1.87
2018-04-26T19:54:45.382Z,2.33
2018-04-26T19:57:15.175Z,2.73
2018-04-26T19:59:44.092Z,3.10
2018-04-26T20:02:13.166Z,4.60
2018-04-26T20:04:41.977Z,3.43
2018-04-26T20:07:12.504Z,3.80
2018-04-26T20:09:41.807Z,4.10
2018-04-26T20:12:12.231Z,3.57
2018-04-26T20:14:41.328Z,3.90
2018-04-26T20:17:10.117Z,4.00
2018-04-26T20:19:39.731Z,4.60
2018-04-26T20:22:10.170Z,4.50
2018-04-26T20:24:39.158Z,4.67
2018-04-26T20:27:08.040Z,5.50
2018-04-26T20:29:37.138Z,3.90
2018-04-26T20:32:06.137Z,3.40
2018-04-26T20:34:35.023Z,3.70
2018-04-26T20:37:04.735Z,4.30
2018-04-26T20:39:34.353Z,4.07
2018-04-26T20:42:04.261Z,3.63
2018-04-26T20:44:44.315Z,2.97
2018-04-26T20:47:14.846Z,3.67
2018-04-26T20:49:43.635Z,3.70
2018-04-26T20:52:12.734Z,3.20
2018-04-26T20:54:41.727Z,3.07
2018-04-26T20:57:11.438Z,3.50
2018-04-26T20:59:40.431Z,3.10
2018-04-26T21:02:09.160Z,3.10
2018-04-26T21:04:38.559Z,2.30
2018-04-26T21:07:07.162Z,2.43
2018-04-26T21:09:36.446Z,2.50
2018-04-26T21:12:04.659Z,1.93
2018-04-26T21:14:34.027Z,2.67
2018-04-26T21:17:02.565Z,4.50
2018-04-26T21:19:31.114Z,3.70
2018-04-26T21:22:00.565Z,5.40
2018-04-26T21:24:29.095Z,2.77
2018-04-26T21:26:57.598Z,2.80
2018-04-26T21:29:26.935Z,2.50
2018-04-26T21:31:55.563Z,3.20
2018-04-26T21:34:24.087Z,3.13
2018-04-26T21:36:52.591Z,2.30
2018-04-26T21:39:21.118Z,2.37
2018-04-26T21:41:50.403Z,2.37
2018-04-26T21:44:19.041Z,2.17
2018-04-26T21:46:47.688Z,1.83
2018-04-26T21:49:15.466Z,1.97
2018-04-26T21:51:50.140Z,2.03
2018-04-26T21:54:24.190Z,2.37
2018-04-26T21:56:57.997Z,2.10
2018-04-26T21:59:32.070Z,2.30
2018-04-26T22:02:06.118Z,2.43
2018-04-26T22:04:40.019Z,2.70
2018-04-26T22:07:08.317Z,2.50
2018-04-26T22:09:37.648Z,2.67
2018-04-26T22:12:07.181Z,2.27
2018-04-26T22:14:35.703Z,2.77
2018-04-26T22:17:03.881Z,2.37
2018-04-26T22:19:32.387Z,2.17
2018-04-26T22:22:01.663Z,2.03
2018-04-26T22:24:30.186Z,2.40
2018-04-26T22:26:58.722Z,2.20
2018-04-26T22:29:27.242Z,2.30
2018-04-26T22:31:56.519Z,2.33
2018-04-26T22:34:25.151Z,2.43
2018-04-26T22:36:54.588Z,2.10
2018-04-26T22:39:23.125Z,2.17
2018-04-26T22:41:51.687Z,2.50
2018-04-26T22:44:21.066Z,2.30
2018-04-26T22:46:49.578Z,2.27
2018-04-26T22:49:18.873Z,2.60
2018-04-26T22:51:48.174Z,2.40
2018-04-26T22:54:16.691Z,2.27
2018-04-26T22:56:45.203Z,2.40
2018-04-26T22:59:13.854Z,2.03
2018-04-26T23:01:43.142Z,2.13
2018-04-26T23:04:12.406Z,2.87
2018-04-26T23:06:40.918Z,2.43
2018-04-26T23:09:10.205Z,2.60
2018-04-26T23:11:38.730Z,2.10
2018-04-26T23:14:07.397Z,2.30
2018-04-26T23:16:36.682Z,2.20
2018-04-26T23:19:05.224Z,2.47
2018-04-26T23:21:34.674Z,2.60
2018-04-26T23:24:03.211Z,2.90
2018-04-26T23:26:31.740Z,4.30
2018-04-26T23:29:00.303Z,2.13
2018-04-26T23:31:28.822Z,2.93
2018-04-26T23:33:58.097Z,2.53
2018-04-26T23:36:26.619Z,2.33
2018-04-26T23:38:56.018Z,3.07
2018-04-26T23:41:25.384Z,2.90
2018-04-26T23:43:53.925Z,2.70
2018-04-26T23:46:22.426Z,3.83
2018-04-26T23:48:50.926Z,3.07
2018-04-26T23:51:19.463Z,3.43
2018-04-26T23:53:47.986Z,3.40
2018-04-26T23:56:16.519Z,3.00
2018-04-26T23:58:45.839Z,2.73
